Aérodrome :
LOGIN :

S'inscrire | Disclaimer

   EN    FR    IT 

 










Légende :    VFR   VFR Marginal   IFR   IFR Intensif   IFR Très Intensif
Visi : 
Plafond : 
>= 8 km
>= 3000ft
5 à 8 km
1000 à 3000 ft
1500m à 5 km
500 à 1000 ft
800 à 1500m
200 à 500 ft
< 800m
< 200 ft
Symboles :   Orages  Brouillard  Fortes neiges  Fortes précipitations  Vent > 20 kt
SIGMETs :   Divers  Orages  Givrage  Turbulence  Onde Orograph.  Cendres Volcan.







- Altitude de l'aérodrome : 1416 ft
- Code IATA : ZRH


LSZH - Zurich

DERNIER METAR :
  • 171450Z 29008KT 9999 FEW045 27/17 Q1019 NOSIG

METARs EXPIRÉS :
  • 171420Z 26004KT 210V310 9999 FEW044 27/17 Q1019 NOSIG
  • 171350Z 32006KT 280V350 9999 FEW044 27/16 Q1019 NOSIG
  • 171320Z 30006KT 280V340 9999 FEW040 SCT180 27/17 Q1019 NOSIG
  • 171250Z VRB04KT 9999 FEW040 SCT180 27/17 Q1020 NOSIG
  • 171220Z 27005KT 230V340 9999 FEW038 SCT180 26/16 Q1020 NOSIG

TAF COR TAF LSZH
Valide du 17 à 15h jusqu'au 18 à 21h UTC


171425Z 1715/1821 VRB03KT 9999 FEW044 TX28/1715Z TN16/1804Z TX29/1814Z
PROB30 1803/1806 4000 MIFG
BECMG 1806/1809 CAVOK
BECMG 1813/1815 28010KT
PROB40
TEMPO 1816/1819 26025G45KT 3000 TSRA FEW015 SCT030CB BKN060
ATIS : +41 43 816 2295 (DEP) +41 43 816 2294 (ARR)
Pas de NOTAMs connus pour ce terrain.



MET'MAP, la Météo Aéronautique d'un coup d'oeil ! - Copyright ORBIFLY Décembre 2007 - Disclaimer

ORBIFLY MET'MAP TEAM :

Programmation & Développement : Alexandra Zaïnal
Conception & Développement : Baudouin d'Aumeries
Co-Programmation & Développement : Marc-Olivier Méhu
Soutien technique & logistique : Manuel Goepfert

Contact : metmap@orbifly.com




SOURCES & CREDITS :

   NOAA